sensor_id;sensor_type;location;lat;lon;timestamp;P1;durP1;ratioP1;P2;durP2;ratioP2
81811;SDS011;71243;51.848;5.768;2023-10-13T00:00:14;16.47;;;7.40;;
81811;SDS011;71243;51.848;5.768;2023-10-13T00:02:40;15.55;;;7.40;;
81811;SDS011;71243;51.848;5.768;2023-10-13T00:05:05;12.97;;;6.70;;
81811;SDS011;71243;51.848;5.768;2023-10-13T00:07:31;15.40;;;7.43;;
81811;SDS011;71243;51.848;5.768;2023-10-13T00:09:56;14.10;;;6.83;;
81811;SDS011;71243;51.848;5.768;2023-10-13T00:12:21;12.50;;;6.60;;
81811;SDS011;71243;51.848;5.768;2023-10-13T00:14:46;16.53;;;7.13;;
81811;SDS011;71243;51.848;5.768;2023-10-13T00:17:11;13.57;;;6.30;;
81811;SDS011;71243;51.848;5.768;2023-10-13T00:19:37;12.77;;;5.60;;
81811;SDS011;71243;51.848;5.768;2023-10-13T00:22:04;16.60;;;7.30;;
81811;SDS011;71243;51.848;5.768;2023-10-13T00:24:30;12.25;;;6.30;;
81811;SDS011;71243;51.848;5.768;2023-10-13T00:26:55;13.60;;;6.53;;
81811;SDS011;71243;51.848;5.768;2023-10-13T00:29:20;13.27;;;6.70;;
81811;SDS011;71243;51.848;5.768;2023-10-13T00:31:46;11.80;;;6.13;;
81811;SDS011;71243;51.848;5.768;2023-10-13T00:34:11;12.57;;;6.30;;
81811;SDS011;71243;51.848;5.768;2023-10-13T00:36:40;12.73;;;5.95;;
81811;SDS011;71243;51.848;5.768;2023-10-13T00:39:05;12.90;;;6.10;;
81811;SDS011;71243;51.848;5.768;2023-10-13T00:41:31;14.20;;;6.20;;
81811;SDS011;71243;51.848;5.768;2023-10-13T00:43:56;13.20;;;5.63;;
81811;SDS011;71243;51.848;5.768;2023-10-13T00:46:21;12.37;;;5.37;;
81811;SDS011;71243;51.848;5.768;2023-10-13T00:48:46;13.53;;;5.80;;
81811;SDS011;71243;51.848;5.768;2023-10-13T00:51:12;13.10;;;5.70;;
81811;SDS011;71243;51.848;5.768;2023-10-13T00:53:38;12.25;;;5.88;;
81811;SDS011;71243;51.848;5.768;2023-10-13T00:56:08;11.48;;;5.53;;
81811;SDS011;71243;51.848;5.768;2023-10-13T00:58:34;12.73;;;6.40;;
81811;SDS011;71243;51.848;5.768;2023-10-13T01:01:00;12.32;;;5.88;;
81811;SDS011;71243;51.848;5.768;2023-10-13T01:03:26;12.23;;;5.15;;
81811;SDS011;71243;51.848;5.768;2023-10-13T01:05:52;28.20;;;6.30;;
81811;SDS011;71243;51.848;5.768;2023-10-13T01:08:19;13.57;;;6.13;;
81811;SDS011;71243;51.848;5.768;2023-10-13T01:10:55;12.15;;;6.28;;
81811;SDS011;71243;51.848;5.768;2023-10-13T01:13:20;12.33;;;5.83;;
81811;SDS011;71243;51.848;5.768;2023-10-13T01:15:46;16.23;;;6.17;;
81811;SDS011;71243;51.848;5.768;2023-10-13T01:18:11;13.27;;;5.27;;
81811;SDS011;71243;51.848;5.768;2023-10-13T01:20:37;12.75;;;5.55;;
81811;SDS011;71243;51.848;5.768;2023-10-13T01:23:04;9.63;;;5.00;;
81811;SDS011;71243;51.848;5.768;2023-10-13T01:25:30;11.35;;;5.40;;
81811;SDS011;71243;51.848;5.768;2023-10-13T01:27:56;13.67;;;5.60;;
81811;SDS011;71243;51.848;5.768;2023-10-13T01:30:21;11.73;;;5.30;;
81811;SDS011;71243;51.848;5.768;2023-10-13T01:32:46;11.20;;;5.23;;
81811;SDS011;71243;51.848;5.768;2023-10-13T01:35:11;11.40;;;5.90;;
81811;SDS011;71243;51.848;5.768;2023-10-13T01:37:36;12.95;;;5.35;;
81811;SDS011;71243;51.848;5.768;2023-10-13T01:40:02;13.17;;;5.67;;
81811;SDS011;71243;51.848;5.768;2023-10-13T01:42:27;10.90;;;4.22;;
81811;SDS011;71243;51.848;5.768;2023-10-13T01:44:52;11.77;;;4.53;;
81811;SDS011;71243;51.848;5.768;2023-10-13T01:47:17;11.90;;;4.93;;
81811;SDS011;71243;51.848;5.768;2023-10-13T01:49:43;9.93;;;4.90;;
81811;SDS011;71243;51.848;5.768;2023-10-13T01:52:09;11.82;;;5.03;;
81811;SDS011;71243;51.848;5.768;2023-10-13T01:54:34;13.57;;;5.43;;
81811;SDS011;71243;51.848;5.768;2023-10-13T01:56:59;13.27;;;5.17;;
81811;SDS011;71243;51.848;5.768;2023-10-13T01:59:25;10.90;;;5.00;;
81811;SDS011;71243;51.848;5.768;2023-10-13T02:01:50;11.93;;;5.23;;
81811;SDS011;71243;51.848;5.768;2023-10-13T02:04:15;9.63;;;4.07;;
81811;SDS011;71243;51.848;5.768;2023-10-13T02:06:40;9.35;;;4.57;;
81811;SDS011;71243;51.848;5.768;2023-10-13T02:09:06;10.67;;;4.47;;
81811;SDS011;71243;51.848;5.768;2023-10-13T02:11:32;9.55;;;4.18;;
81811;SDS011;71243;51.848;5.768;2023-10-13T02:13:57;8.80;;;4.73;;
81811;SDS011;71243;51.848;5.768;2023-10-13T02:16:23;10.77;;;4.07;;
81811;SDS011;71243;51.848;5.768;2023-10-13T02:18:48;12.27;;;5.53;;
81811;SDS011;71243;51.848;5.768;2023-10-13T02:21:13;10.67;;;4.20;;
81811;SDS011;71243;51.848;5.768;2023-10-13T02:23:39;11.53;;;4.37;;
81811;SDS011;71243;51.848;5.768;2023-10-13T02:26:04;10.35;;;4.50;;
81811;SDS011;71243;51.848;5.768;2023-10-13T02:28:30;10.77;;;3.80;;
81811;SDS011;71243;51.848;5.768;2023-10-13T02:30:55;12.00;;;4.80;;
81811;SDS011;71243;51.848;5.768;2023-10-13T02:33:20;9.07;;;3.40;;
81811;SDS011;71243;51.848;5.768;2023-10-13T02:35:45;8.43;;;3.87;;
81811;SDS011;71243;51.848;5.768;2023-10-13T02:38:11;9.80;;;2.70;;
81811;SDS011;71243;51.848;5.768;2023-10-13T02:40:36;9.07;;;3.83;;
81811;SDS011;71243;51.848;5.768;2023-10-13T02:43:01;11.50;;;3.60;;
81811;SDS011;71243;51.848;5.768;2023-10-13T02:45:26;8.53;;;3.23;;
81811;SDS011;71243;51.848;5.768;2023-10-13T02:47:51;11.23;;;3.77;;
81811;SDS011;71243;51.848;5.768;2023-10-13T02:50:17;9.63;;;3.60;;
81811;SDS011;71243;51.848;5.768;2023-10-13T02:52:42;8.63;;;3.40;;
81811;SDS011;71243;51.848;5.768;2023-10-13T02:55:07;9.50;;;3.93;;
81811;SDS011;71243;51.848;5.768;2023-10-13T02:57:33;8.70;;;3.63;;
81811;SDS011;71243;51.848;5.768;2023-10-13T02:59:58;8.13;;;3.30;;
81811;SDS011;71243;51.848;5.768;2023-10-13T03:02:23;8.40;;;3.37;;
81811;SDS011;71243;51.848;5.768;2023-10-13T03:04:49;10.30;;;3.85;;
81811;SDS011;71243;51.848;5.768;2023-10-13T03:07:15;9.50;;;3.30;;
81811;SDS011;71243;51.848;5.768;2023-10-13T03:09:41;9.57;;;3.67;;
81811;SDS011;71243;51.848;5.768;2023-10-13T03:12:07;9.90;;;3.70;;
81811;SDS011;71243;51.848;5.768;2023-10-13T03:14:32;11.13;;;4.10;;
81811;SDS011;71243;51.848;5.768;2023-10-13T03:16:58;8.33;;;3.30;;
81811;SDS011;71243;51.848;5.768;2023-10-13T03:19:25;9.75;;;3.75;;
81811;SDS011;71243;51.848;5.768;2023-10-13T03:21:50;17.97;;;4.50;;
81811;SDS011;71243;51.848;5.768;2023-10-13T03:24:15;10.07;;;4.25;;
81811;SDS011;71243;51.848;5.768;2023-10-13T03:26:41;10.90;;;3.93;;
81811;SDS011;71243;51.848;5.768;2023-10-13T03:29:06;9.60;;;4.17;;
81811;SDS011;71243;51.848;5.768;2023-10-13T03:31:31;12.60;;;4.87;;
81811;SDS011;71243;51.848;5.768;2023-10-13T03:33:56;10.17;;;5.07;;
81811;SDS011;71243;51.848;5.768;2023-10-13T03:36:21;13.77;;;5.40;;
81811;SDS011;71243;51.848;5.768;2023-10-13T03:38:47;12.20;;;5.53;;
81811;SDS011;71243;51.848;5.768;2023-10-13T03:41:12;10.93;;;5.53;;
81811;SDS011;71243;51.848;5.768;2023-10-13T03:43:37;11.60;;;5.15;;
81811;SDS011;71243;51.848;5.768;2023-10-13T03:46:02;13.38;;;5.45;;
81811;SDS011;71243;51.848;5.768;2023-10-13T03:48:28;13.73;;;5.38;;
81811;SDS011;71243;51.848;5.768;2023-10-13T03:50:57;11.87;;;5.30;;
81811;SDS011;71243;51.848;5.768;2023-10-13T03:53:26;12.75;;;5.80;;
81811;SDS011;71243;51.848;5.768;2023-10-13T03:55:51;10.80;;;5.60;;
81811;SDS011;71243;51.848;5.768;2023-10-13T03:58:17;10.27;;;5.33;;
81811;SDS011;71243;51.848;5.768;2023-10-13T04:00:42;13.27;;;6.17;;
81811;SDS011;71243;51.848;5.768;2023-10-13T04:03:07;13.43;;;5.68;;
81811;SDS011;71243;51.848;5.768;2023-10-13T04:05:33;12.43;;;5.50;;
81811;SDS011;71243;51.848;5.768;2023-10-13T04:08:01;13.68;;;6.45;;
81811;SDS011;71243;51.848;5.768;2023-10-13T04:10:27;12.85;;;5.32;;
81811;SDS011;71243;51.848;5.768;2023-10-13T04:12:53;13.50;;;6.43;;
81811;SDS011;71243;51.848;5.768;2023-10-13T04:15:18;16.47;;;7.07;;
81811;SDS011;71243;51.848;5.768;2023-10-13T04:17:43;14.57;;;6.53;;
81811;SDS011;71243;51.848;5.768;2023-10-13T04:20:08;15.18;;;6.35;;
81811;SDS011;71243;51.848;5.768;2023-10-13T04:22:34;15.37;;;6.33;;
81811;SDS011;71243;51.848;5.768;2023-10-13T04:25:01;17.38;;;6.75;;
81811;SDS011;71243;51.848;5.768;2023-10-13T04:27:26;14.32;;;7.05;;
81811;SDS011;71243;51.848;5.768;2023-10-13T04:29:52;15.63;;;7.40;;
81811;SDS011;71243;51.848;5.768;2023-10-13T04:32:17;14.77;;;7.43;;
81811;SDS011;71243;51.848;5.768;2023-10-13T04:34:43;15.43;;;7.60;;
81811;SDS011;71243;51.848;5.768;2023-10-13T04:37:08;18.30;;;6.97;;
81811;SDS011;71243;51.848;5.768;2023-10-13T04:39:33;17.70;;;7.40;;
81811;SDS011;71243;51.848;5.768;2023-10-13T04:41:58;14.23;;;7.60;;
81811;SDS011;71243;51.848;5.768;2023-10-13T04:44:24;16.23;;;8.27;;
81811;SDS011;71243;51.848;5.768;2023-10-13T04:46:50;17.17;;;8.57;;
81811;SDS011;71243;51.848;5.768;2023-10-13T04:49:15;15.90;;;8.05;;
81811;SDS011;71243;51.848;5.768;2023-10-13T04:51:40;15.98;;;9.02;;
81811;SDS011;71243;51.848;5.768;2023-10-13T04:54:06;14.93;;;7.83;;
81811;SDS011;71243;51.848;5.768;2023-10-13T04:56:31;17.67;;;9.17;;
81811;SDS011;71243;51.848;5.768;2023-10-13T04:58:56;15.60;;;8.60;;
81811;SDS011;71243;51.848;5.768;2023-10-13T05:01:21;17.10;;;8.33;;
81811;SDS011;71243;51.848;5.768;2023-10-13T05:03:47;16.90;;;8.40;;
81811;SDS011;71243;51.848;5.768;2023-10-13T05:06:12;18.80;;;7.60;;
81811;SDS011;71243;51.848;5.768;2023-10-13T05:08:37;18.30;;;9.50;;
81811;SDS011;71243;51.848;5.768;2023-10-13T05:11:03;17.43;;;8.27;;
81811;SDS011;71243;51.848;5.768;2023-10-13T05:13:28;17.38;;;7.72;;
81811;SDS011;71243;51.848;5.768;2023-10-13T05:15:54;15.53;;;6.97;;
81811;SDS011;71243;51.848;5.768;2023-10-13T05:18:19;14.55;;;7.65;;
81811;SDS011;71243;51.848;5.768;2023-10-13T05:20:44;16.63;;;7.00;;
81811;SDS011;71243;51.848;5.768;2023-10-13T05:23:09;13.43;;;5.77;;
81811;SDS011;71243;51.848;5.768;2023-10-13T05:25:38;15.07;;;7.10;;
81811;SDS011;71243;51.848;5.768;2023-10-13T05:28:03;11.88;;;6.03;;
81811;SDS011;71243;51.848;5.768;2023-10-13T05:30:29;16.05;;;6.97;;
81811;SDS011;71243;51.848;5.768;2023-10-13T05:32:54;10.47;;;5.40;;
81811;SDS011;71243;51.848;5.768;2023-10-13T05:35:20;14.40;;;6.03;;
81811;SDS011;71243;51.848;5.768;2023-10-13T05:37:46;13.80;;;5.68;;
81811;SDS011;71243;51.848;5.768;2023-10-13T05:40:11;11.87;;;5.10;;
81811;SDS011;71243;51.848;5.768;2023-10-13T05:42:36;13.15;;;6.07;;
81811;SDS011;71243;51.848;5.768;2023-10-13T05:45:01;11.97;;;5.03;;
81811;SDS011;71243;51.848;5.768;2023-10-13T05:47:27;11.40;;;5.07;;
81811;SDS011;71243;51.848;5.768;2023-10-13T05:49:52;12.03;;;4.90;;
81811;SDS011;71243;51.848;5.768;2023-10-13T05:52:17;11.73;;;4.40;;
81811;SDS011;71243;51.848;5.768;2023-10-13T05:54:42;9.13;;;4.40;;
81811;SDS011;71243;51.848;5.768;2023-10-13T05:57:08;9.90;;;4.67;;
81811;SDS011;71243;51.848;5.768;2023-10-13T05:59:34;10.15;;;5.15;;
81811;SDS011;71243;51.848;5.768;2023-10-13T06:02:00;9.80;;;4.85;;
81811;SDS011;71243;51.848;5.768;2023-10-13T06:04:26;10.47;;;5.37;;
81811;SDS011;71243;51.848;5.768;2023-10-13T06:06:51;9.50;;;4.77;;
81811;SDS011;71243;51.848;5.768;2023-10-13T06:09:16;8.77;;;4.40;;
81811;SDS011;71243;51.848;5.768;2023-10-13T06:11:41;9.00;;;4.00;;
81811;SDS011;71243;51.848;5.768;2023-10-13T06:14:07;8.97;;;3.53;;
81811;SDS011;71243;51.848;5.768;2023-10-13T06:16:32;10.70;;;4.20;;
81811;SDS011;71243;51.848;5.768;2023-10-13T06:18:57;9.47;;;3.93;;
81811;SDS011;71243;51.848;5.768;2023-10-13T06:21:22;9.45;;;4.65;;
81811;SDS011;71243;51.848;5.768;2023-10-13T06:23:48;8.35;;;3.33;;
81811;SDS011;71243;51.848;5.768;2023-10-13T06:26:13;10.00;;;3.80;;
81811;SDS011;71243;51.848;5.768;2023-10-13T06:28:38;9.73;;;3.93;;
81811;SDS011;71243;51.848;5.768;2023-10-13T06:31:04;9.98;;;4.55;;
81811;SDS011;71243;51.848;5.768;2023-10-13T06:33:30;9.07;;;3.55;;
81811;SDS011;71243;51.848;5.768;2023-10-13T06:35:56;8.60;;;3.73;;
81811;SDS011;71243;51.848;5.768;2023-10-13T06:38:22;8.63;;;3.63;;
81811;SDS011;71243;51.848;5.768;2023-10-13T06:40:47;9.00;;;3.60;;
81811;SDS011;71243;51.848;5.768;2023-10-13T06:43:13;7.68;;;3.53;;
81811;SDS011;71243;51.848;5.768;2023-10-13T06:45:38;8.50;;;3.53;;
81811;SDS011;71243;51.848;5.768;2023-10-13T06:48:04;9.18;;;3.97;;
81811;SDS011;71243;51.848;5.768;2023-10-13T06:50:30;7.45;;;3.60;;
81811;SDS011;71243;51.848;5.768;2023-10-13T06:52:55;9.68;;;3.70;;
81811;SDS011;71243;51.848;5.768;2023-10-13T06:55:21;8.40;;;3.67;;
81811;SDS011;71243;51.848;5.768;2023-10-13T06:57:46;7.73;;;3.90;;
81811;SDS011;71243;51.848;5.768;2023-10-13T07:00:11;9.07;;;3.57;;
81811;SDS011;71243;51.848;5.768;2023-10-13T07:02:37;10.93;;;4.00;;
81811;SDS011;71243;51.848;5.768;2023-10-13T07:05:02;9.67;;;4.10;;
81811;SDS011;71243;51.848;5.768;2023-10-13T07:07:28;11.35;;;4.30;;
81811;SDS011;71243;51.848;5.768;2023-10-13T07:09:53;8.50;;;3.53;;
81811;SDS011;71243;51.848;5.768;2023-10-13T07:12:18;9.43;;;4.40;;
81811;SDS011;71243;51.848;5.768;2023-10-13T07:14:47;10.83;;;4.10;;
81811;SDS011;71243;51.848;5.768;2023-10-13T07:17:13;10.88;;;4.60;;
81811;SDS011;71243;51.848;5.768;2023-10-13T07:19:38;10.57;;;4.10;;
81811;SDS011;71243;51.848;5.768;2023-10-13T07:22:04;10.13;;;3.83;;
81811;SDS011;71243;51.848;5.768;2023-10-13T07:24:29;14.38;;;4.30;;
81811;SDS011;71243;51.848;5.768;2023-10-13T07:26:54;10.50;;;4.37;;
81811;SDS011;71243;51.848;5.768;2023-10-13T07:29:19;9.20;;;3.73;;
81811;SDS011;71243;51.848;5.768;2023-10-13T07:31:45;12.67;;;4.03;;
81811;SDS011;71243;51.848;5.768;2023-10-13T07:34:10;10.43;;;4.17;;
81811;SDS011;71243;51.848;5.768;2023-10-13T07:36:35;13.90;;;4.35;;
81811;SDS011;71243;51.848;5.768;2023-10-13T07:39:00;10.57;;;4.10;;
81811;SDS011;71243;51.848;5.768;2023-10-13T07:41:26;11.87;;;4.07;;
81811;SDS011;71243;51.848;5.768;2023-10-13T07:43:51;12.97;;;3.90;;
81811;SDS011;71243;51.848;5.768;2023-10-13T07:46:16;8.90;;;4.20;;
81811;SDS011;71243;51.848;5.768;2023-10-13T07:48:41;9.40;;;4.40;;
81811;SDS011;71243;51.848;5.768;2023-10-13T07:51:07;10.87;;;3.20;;
81811;SDS011;71243;51.848;5.768;2023-10-13T07:53:34;13.05;;;4.38;;
81811;SDS011;71243;51.848;5.768;2023-10-13T07:55:59;9.63;;;3.80;;
81811;SDS011;71243;51.848;5.768;2023-10-13T07:58:25;12.27;;;3.70;;
81811;SDS011;71243;51.848;5.768;2023-10-13T08:00:50;9.07;;;4.13;;
81811;SDS011;71243;51.848;5.768;2023-10-13T08:03:16;8.07;;;3.30;;
81811;SDS011;71243;51.848;5.768;2023-10-13T08:05:42;9.43;;;3.87;;
81811;SDS011;71243;51.848;5.768;2023-10-13T08:08:10;11.02;;;3.88;;
81811;SDS011;71243;51.848;5.768;2023-10-13T08:10:36;8.70;;;3.70;;
81811;SDS011;71243;51.848;5.768;2023-10-13T08:13:01;11.63;;;3.72;;
81811;SDS011;71243;51.848;5.768;2023-10-13T08:15:26;10.38;;;4.38;;
81811;SDS011;71243;51.848;5.768;2023-10-13T08:17:51;12.37;;;4.93;;
81811;SDS011;71243;51.848;5.768;2023-10-13T08:20:17;11.37;;;3.93;;
81811;SDS011;71243;51.848;5.768;2023-10-13T08:22:42;13.00;;;3.58;;
81811;SDS011;71243;51.848;5.768;2023-10-13T08:25:07;12.83;;;4.77;;
81811;SDS011;71243;51.848;5.768;2023-10-13T08:27:33;13.05;;;4.18;;
81811;SDS011;71243;51.848;5.768;2023-10-13T08:29:58;13.52;;;4.03;;
81811;SDS011;71243;51.848;5.768;2023-10-13T08:32:27;9.30;;;4.10;;
81811;SDS011;71243;51.848;5.768;2023-10-13T08:34:54;10.48;;;3.85;;
81811;SDS011;71243;51.848;5.768;2023-10-13T08:37:20;11.95;;;4.65;;
81811;SDS011;71243;51.848;5.768;2023-10-13T08:39:46;12.23;;;4.78;;
81811;SDS011;71243;51.848;5.768;2023-10-13T08:42:11;11.40;;;3.90;;
81811;SDS011;71243;51.848;5.768;2023-10-13T08:44:38;11.20;;;4.47;;
81811;SDS011;71243;51.848;5.768;2023-10-13T08:47:08;10.80;;;3.90;;
81811;SDS011;71243;51.848;5.768;2023-10-13T08:49:34;12.82;;;3.47;;
81811;SDS011;71243;51.848;5.768;2023-10-13T08:52:00;7.93;;;3.47;;
81811;SDS011;71243;51.848;5.768;2023-10-13T08:54:26;10.63;;;3.40;;
81811;SDS011;71243;51.848;5.768;2023-10-13T08:56:51;8.57;;;3.65;;
81811;SDS011;71243;51.848;5.768;2023-10-13T08:59:17;10.03;;;3.70;;
81811;SDS011;71243;51.848;5.768;2023-10-13T09:01:42;9.87;;;3.70;;
81811;SDS011;71243;51.848;5.768;2023-10-13T09:04:10;10.53;;;4.03;;
81811;SDS011;71243;51.848;5.768;2023-10-13T09:06:37;10.20;;;3.75;;
81811;SDS011;71243;51.848;5.768;2023-10-13T09:09:08;12.13;;;4.40;;
81811;SDS011;71243;51.848;5.768;2023-10-13T09:11:35;11.18;;;3.45;;
81811;SDS011;71243;51.848;5.768;2023-10-13T09:14:01;11.57;;;4.13;;
81811;SDS011;71243;51.848;5.768;2023-10-13T09:16:26;10.23;;;4.20;;
81811;SDS011;71243;51.848;5.768;2023-10-13T09:18:51;7.20;;;3.50;;
81811;SDS011;71243;51.848;5.768;2023-10-13T09:21:16;9.33;;;3.30;;
81811;SDS011;71243;51.848;5.768;2023-10-13T09:23:45;13.70;;;3.93;;
81811;SDS011;71243;51.848;5.768;2023-10-13T09:26:11;11.63;;;3.90;;
81811;SDS011;71243;51.848;5.768;2023-10-13T09:28:36;9.90;;;3.70;;
81811;SDS011;71243;51.848;5.768;2023-10-13T09:31:01;11.50;;;3.30;;
81811;SDS011;71243;51.848;5.768;2023-10-13T09:33:27;10.37;;;3.60;;
81811;SDS011;71243;51.848;5.768;2023-10-13T09:35:53;9.77;;;3.42;;
81811;SDS011;71243;51.848;5.768;2023-10-13T09:38:19;11.32;;;4.25;;
81811;SDS011;71243;51.848;5.768;2023-10-13T09:40:44;10.68;;;4.00;;
81811;SDS011;71243;51.848;5.768;2023-10-13T09:43:10;9.07;;;3.53;;
81811;SDS011;71243;51.848;5.768;2023-10-13T09:45:35;11.10;;;3.53;;
81811;SDS011;71243;51.848;5.768;2023-10-13T09:48:01;12.45;;;3.25;;
81811;SDS011;71243;51.848;5.768;2023-10-13T09:50:27;8.98;;;3.47;;
81811;SDS011;71243;51.848;5.768;2023-10-13T09:52:54;9.10;;;3.30;;
81811;SDS011;71243;51.848;5.768;2023-10-13T09:55:26;13.73;;;3.33;;
81811;SDS011;71243;51.848;5.768;2023-10-13T09:57:56;11.23;;;3.50;;
81811;SDS011;71243;51.848;5.768;2023-10-13T10:00:27;8.95;;;3.60;;
81811;SDS011;71243;51.848;5.768;2023-10-13T10:02:56;12.75;;;3.75;;
81811;SDS011;71243;51.848;5.768;2023-10-13T10:05:25;10.53;;;3.30;;
81811;SDS011;71243;51.848;5.768;2023-10-13T10:07:54;9.07;;;3.42;;
81811;SDS011;71243;51.848;5.768;2023-10-13T10:10:23;11.40;;;4.90;;
81811;SDS011;71243;51.848;5.768;2023-10-13T10:13:13;11.20;;;4.32;;
81811;SDS011;71243;51.848;5.768;2023-10-13T10:15:46;9.38;;;3.40;;
81811;SDS011;71243;51.848;5.768;2023-10-13T10:18:20;8.63;;;3.00;;
81811;SDS011;71243;51.848;5.768;2023-10-13T10:20:47;10.07;;;3.88;;
81811;SDS011;71243;51.848;5.768;2023-10-13T10:23:26;12.60;;;4.38;;
81811;SDS011;71243;51.848;5.768;2023-10-13T10:25:52;9.85;;;3.50;;
81811;SDS011;71243;51.848;5.768;2023-10-13T10:28:18;10.43;;;3.72;;
81811;SDS011;71243;51.848;5.768;2023-10-13T10:30:43;8.50;;;3.17;;
81811;SDS011;71243;51.848;5.768;2023-10-13T10:33:09;9.70;;;3.35;;
81811;SDS011;71243;51.848;5.768;2023-10-13T10:35:35;12.02;;;3.45;;
81811;SDS011;71243;51.848;5.768;2023-10-13T10:38:11;9.18;;;3.20;;
81811;SDS011;71243;51.848;5.768;2023-10-13T10:40:48;12.02;;;4.43;;
81811;SDS011;71243;51.848;5.768;2023-10-13T10:43:20;12.10;;;4.90;;
81811;SDS011;71243;51.848;5.768;2023-10-13T10:45:46;12.43;;;3.63;;
81811;SDS011;71243;51.848;5.768;2023-10-13T10:48:12;10.05;;;3.92;;
81811;SDS011;71243;51.848;5.768;2023-10-13T10:50:38;10.30;;;3.83;;
81811;SDS011;71243;51.848;5.768;2023-10-13T10:53:06;10.13;;;3.67;;
81811;SDS011;71243;51.848;5.768;2023-10-13T10:55:31;12.90;;;4.18;;
81811;SDS011;71243;51.848;5.768;2023-10-13T10:57:59;8.17;;;3.50;;
81811;SDS011;71243;51.848;5.768;2023-10-13T11:00:25;11.93;;;3.70;;
81811;SDS011;71243;51.848;5.768;2023-10-13T11:02:54;9.03;;;3.97;;
81811;SDS011;71243;51.848;5.768;2023-10-13T11:05:20;11.02;;;3.83;;
81811;SDS011;71243;51.848;5.768;2023-10-13T11:07:45;15.32;;;4.03;;
81811;SDS011;71243;51.848;5.768;2023-10-13T11:10:11;16.90;;;4.07;;
81811;SDS011;71243;51.848;5.768;2023-10-13T11:12:37;14.52;;;4.15;;
81811;SDS011;71243;51.848;5.768;2023-10-13T11:15:06;11.60;;;4.32;;
81811;SDS011;71243;51.848;5.768;2023-10-13T11:17:32;10.32;;;3.65;;
81811;SDS011;71243;51.848;5.768;2023-10-13T11:19:57;11.20;;;3.60;;
81811;SDS011;71243;51.848;5.768;2023-10-13T11:22:22;12.73;;;3.40;;
81811;SDS011;71243;51.848;5.768;2023-10-13T11:24:48;11.40;;;4.40;;
81811;SDS011;71243;51.848;5.768;2023-10-13T11:27:14;12.93;;;4.30;;
81811;SDS011;71243;51.848;5.768;2023-10-13T11:29:39;13.50;;;4.40;;
81811;SDS011;71243;51.848;5.768;2023-10-13T11:32:05;12.93;;;4.17;;
81811;SDS011;71243;51.848;5.768;2023-10-13T11:34:30;12.47;;;3.90;;
81811;SDS011;71243;51.848;5.768;2023-10-13T11:36:55;10.10;;;4.27;;
81811;SDS011;71243;51.848;5.768;2023-10-13T11:39:20;9.82;;;3.95;;
81811;SDS011;71243;51.848;5.768;2023-10-13T11:41:46;15.25;;;4.68;;
81811;SDS011;71243;51.848;5.768;2023-10-13T11:44:11;12.17;;;4.43;;
81811;SDS011;71243;51.848;5.768;2023-10-13T11:46:36;11.47;;;4.43;;
81811;SDS011;71243;51.848;5.768;2023-10-13T11:49:04;11.30;;;3.90;;
81811;SDS011;71243;51.848;5.768;2023-10-13T11:51:33;9.57;;;4.55;;
81811;SDS011;71243;51.848;5.768;2023-10-13T11:53:58;13.23;;;3.93;;
81811;SDS011;71243;51.848;5.768;2023-10-13T11:56:24;10.37;;;4.67;;
81811;SDS011;71243;51.848;5.768;2023-10-13T11:58:50;12.85;;;4.25;;
81811;SDS011;71243;51.848;5.768;2023-10-13T12:01:16;11.55;;;3.97;;
81811;SDS011;71243;51.848;5.768;2023-10-13T12:03:42;9.75;;;3.85;;
81811;SDS011;71243;51.848;5.768;2023-10-13T12:06:09;14.07;;;4.78;;
81811;SDS011;71243;51.848;5.768;2023-10-13T12:08:34;12.03;;;4.83;;
81811;SDS011;71243;51.848;5.768;2023-10-13T12:10:59;10.43;;;4.60;;
81811;SDS011;71243;51.848;5.768;2023-10-13T12:13:25;12.00;;;4.70;;
81811;SDS011;71243;51.848;5.768;2023-10-13T12:15:50;9.20;;;4.00;;
81811;SDS011;71243;51.848;5.768;2023-10-13T12:18:15;10.17;;;3.70;;
81811;SDS011;71243;51.848;5.768;2023-10-13T12:20:41;12.07;;;4.28;;
81811;SDS011;71243;51.848;5.768;2023-10-13T12:23:06;12.20;;;3.70;;
81811;SDS011;71243;51.848;5.768;2023-10-13T12:25:31;11.47;;;4.37;;
81811;SDS011;71243;51.848;5.768;2023-10-13T12:27:57;12.70;;;4.25;;
81811;SDS011;71243;51.848;5.768;2023-10-13T12:30:22;15.87;;;5.07;;
81811;SDS011;71243;51.848;5.768;2023-10-13T12:32:50;13.73;;;4.70;;
81811;SDS011;71243;51.848;5.768;2023-10-13T12:35:15;11.40;;;4.47;;
81811;SDS011;71243;51.848;5.768;2023-10-13T12:37:41;10.40;;;4.30;;
81811;SDS011;71243;51.848;5.768;2023-10-13T12:40:06;13.17;;;4.47;;
81811;SDS011;71243;51.848;5.768;2023-10-13T12:42:33;10.65;;;4.22;;
81811;SDS011;71243;51.848;5.768;2023-10-13T12:44:58;13.37;;;4.10;;
81811;SDS011;71243;51.848;5.768;2023-10-13T12:47:23;13.67;;;4.87;;
81811;SDS011;71243;51.848;5.768;2023-10-13T12:49:49;17.93;;;4.83;;
81811;SDS011;71243;51.848;5.768;2023-10-13T12:52:14;11.70;;;3.67;;
81811;SDS011;71243;51.848;5.768;2023-10-13T12:54:40;12.25;;;4.03;;
81811;SDS011;71243;51.848;5.768;2023-10-13T12:57:05;12.03;;;4.30;;
81811;SDS011;71243;51.848;5.768;2023-10-13T12:59:31;13.87;;;4.40;;
81811;SDS011;71243;51.848;5.768;2023-10-13T13:01:56;11.63;;;5.30;;
81811;SDS011;71243;51.848;5.768;2023-10-13T13:04:21;10.67;;;4.77;;
81811;SDS011;71243;51.848;5.768;2023-10-13T13:06:47;15.27;;;4.67;;
81811;SDS011;71243;51.848;5.768;2023-10-13T13:09:13;10.98;;;3.50;;
81811;SDS011;71243;51.848;5.768;2023-10-13T13:11:38;16.90;;;4.90;;
81811;SDS011;71243;51.848;5.768;2023-10-13T13:14:04;14.27;;;4.32;;
81811;SDS011;71243;51.848;5.768;2023-10-13T13:16:29;14.03;;;4.00;;
81811;SDS011;71243;51.848;5.768;2023-10-13T13:18:54;10.80;;;4.10;;
81811;SDS011;71243;51.848;5.768;2023-10-13T13:21:19;16.83;;;4.20;;
81811;SDS011;71243;51.848;5.768;2023-10-13T13:23:45;10.77;;;3.90;;
81811;SDS011;71243;51.848;5.768;2023-10-13T13:26:11;13.43;;;4.32;;
81811;SDS011;71243;51.848;5.768;2023-10-13T13:28:36;12.02;;;4.32;;
81811;SDS011;71243;51.848;5.768;2023-10-13T13:31:02;14.00;;;3.50;;
81811;SDS011;71243;51.848;5.768;2023-10-13T13:33:27;14.53;;;4.67;;
81811;SDS011;71243;51.848;5.768;2023-10-13T13:35:55;8.77;;;3.50;;
81811;SDS011;71243;51.848;5.768;2023-10-13T13:38:20;11.65;;;3.90;;
81811;SDS011;71243;51.848;5.768;2023-10-13T13:40:46;11.63;;;3.70;;
81811;SDS011;71243;51.848;5.768;2023-10-13T13:43:11;14.93;;;4.17;;
81811;SDS011;71243;51.848;5.768;2023-10-13T13:45:36;9.93;;;3.40;;
81811;SDS011;71243;51.848;5.768;2023-10-13T13:48:01;10.40;;;2.97;;
81811;SDS011;71243;51.848;5.768;2023-10-13T13:50:27;12.93;;;3.35;;
81811;SDS011;71243;51.848;5.768;2023-10-13T13:52:52;11.45;;;3.67;;
81811;SDS011;71243;51.848;5.768;2023-10-13T13:55:19;12.93;;;3.40;;
81811;SDS011;71243;51.848;5.768;2023-10-13T13:57:45;11.70;;;3.80;;
81811;SDS011;71243;51.848;5.768;2023-10-13T14:00:10;10.25;;;3.53;;
81811;SDS011;71243;51.848;5.768;2023-10-13T14:02:36;10.32;;;3.28;;
81811;SDS011;71243;51.848;5.768;2023-10-13T14:05:01;12.73;;;3.70;;
81811;SDS011;71243;51.848;5.768;2023-10-13T14:07:27;9.55;;;3.28;;
81811;SDS011;71243;51.848;5.768;2023-10-13T14:09:52;16.13;;;3.97;;
81811;SDS011;71243;51.848;5.768;2023-10-13T14:12:20;11.20;;;3.57;;
81811;SDS011;71243;51.848;5.768;2023-10-13T14:14:45;11.07;;;3.35;;
81811;SDS011;71243;51.848;5.768;2023-10-13T14:17:11;11.27;;;3.30;;
81811;SDS011;71243;51.848;5.768;2023-10-13T14:19:36;9.33;;;3.03;;
81811;SDS011;71243;51.848;5.768;2023-10-13T14:22:01;9.05;;;3.13;;
81811;SDS011;71243;51.848;5.768;2023-10-13T14:24:26;11.60;;;3.40;;
81811;SDS011;71243;51.848;5.768;2023-10-13T14:26:52;8.60;;;2.90;;
81811;SDS011;71243;51.848;5.768;2023-10-13T14:29:17;10.07;;;4.20;;